Time;durP1;ratioP1;P1;durP2;ratioP2;P2;SDS_P1;SDS_P2;PMS_P1;PMS_P2;Temp;Humidity;BMP_temperature;BMP_pressure;BME280_temperature;BME280_humidity;BME280_pressure;Samples;Min_cycle;Max_cycle;Signal;HPM_P1;HPM_P2
2022/09/12 00:00:17;;;;;;;;;;;24.50;47.90;;;;;;1624113;70;781;-67
2022/09/12 00:02:19;;;;;;;;;;;24.50;48.00;;;;;;1627462;72;1158;-68
2022/09/12 00:04:20;;;;;;;;;;;24.50;48.00;;;;;;1638019;72;691;-67
2022/09/12 00:06:23;;;;;;;;;;;24.50;48.00;;;;;;1623803;72;1938;-68
2022/09/12 00:08:25;;;;;;;;;;;24.50;47.90;;;;;;1639672;70;1509;-67
2022/09/12 00:10:27;;;;;;;;;;;24.50;47.80;;;;;;1633559;72;772;-65
2022/09/12 00:12:29;;;;;;;;;;;24.50;47.90;;;;;;1625810;72;1154;-66
2022/09/12 00:14:31;;;;;;;;;;;24.50;47.90;;;;;;1643336;72;796;-67
2022/09/12 00:16:33;;;;;;;;;;;24.40;47.60;;;;;;1637137;72;750;-70
2022/09/12 00:18:35;;;;;;;;;;;24.50;47.70;;;;;;1627854;72;715;-67
2022/09/12 00:20:39;;;;;;;;;;;24.50;47.70;;;;;;1637659;72;778;-70
2022/09/12 00:22:41;;;;;;;;;;;24.50;47.70;;;;;;1624660;72;1956;-66
2022/09/12 00:24:43;;;;;;;;;;;24.40;47.60;;;;;;1622142;72;1936;-67
2022/09/12 00:26:44;;;;;;;;;;;24.50;47.70;;;;;;1635017;72;726;-67
2022/09/12 00:28:46;;;;;;;;;;;24.50;47.70;;;;;;1624710;72;747;-66
2022/09/12 00:30:48;;;;;;;;;;;24.50;47.60;;;;;;1636488;72;757;-66
2022/09/12 00:32:50;;;;;;;;;;;24.40;47.60;;;;;;1643309;72;651;-67
2022/09/12 00:34:52;;;;;;;;;;;24.50;47.80;;;;;;1631094;72;814;-66
2022/09/12 00:36:54;;;;;;;;;;;24.40;47.50;;;;;;1637449;72;1568;-66
2022/09/12 00:38:56;;;;;;;;;;;24.40;47.40;;;;;;1636091;72;737;-66
2022/09/12 00:40:57;;;;;;;;;;;24.50;47.40;;;;;;1626165;72;1118;-66
2022/09/12 00:42:59;;;;;;;;;;;24.40;47.30;;;;;;1639799;72;814;-66
2022/09/12 00:45:01;;;;;;;;;;;24.40;47.40;;;;;;1639823;72;1946;-67
2022/09/12 00:47:21;;;;;;;;;;;24.30;47.50;;;;;;1646700;72;745;-68
2022/09/12 00:49:28;;;;;;;;;;;24.40;47.60;;;;;;1631066;72;781;-69
2022/09/12 00:51:30;;;;;;;;;;;24.40;47.60;;;;;;1647284;72;1530;-70
2022/09/12 00:53:32;;;;;;;;;;;24.30;47.60;;;;;;1633356;72;811;-68
2022/09/12 00:55:38;;;;;;;;;;;24.40;47.70;;;;;;1622793;72;699;-70
2022/09/12 00:57:42;;;;;;;;;;;24.30;47.80;;;;;;1634818;72;1815;-70
2022/09/12 00:59:47;;;;;;;;;;;24.30;47.80;;;;;;1652924;72;964;-69
2022/09/12 01:01:49;;;;;;;;;;;24.30;47.70;;;;;;1636880;72;1142;-72
2022/09/12 01:03:51;;;;;;;;;;;24.30;47.70;;;;;;1633901;72;710;-69
2022/09/12 01:05:55;;;;;;;;;;;24.40;47.70;;;;;;1626114;72;1943;-70
2022/09/12 01:07:57;;;;;;;;;;;24.30;47.80;;;;;;1627439;72;1588;-69
2022/09/12 01:09:59;;;;;;;;;;;24.30;47.80;;;;;;1617592;72;805;-69
2022/09/12 01:12:01;;;;;;;;;;;24.30;47.80;;;;;;1615757;72;1170;-71
2022/09/12 01:14:03;;;;;;;;;;;24.30;48.10;;;;;;1628696;72;797;-69
2022/09/12 01:16:05;;;;;;;;;;;24.30;48.00;;;;;;1644742;72;749;-68
2022/09/12 01:18:25;;;;;;;;;;;24.30;48.00;;;;;;1621014;72;740;-68
2022/09/12 01:20:38;;;;;;;;;;;24.30;48.00;;;;;;1622999;72;1675;-68
2022/09/12 01:22:50;;;;;;;;;;;24.30;48.00;;;;;;1631399;72;1944;-67
2022/09/12 01:25:03;;;;;;;;;;;24.30;48.10;;;;;;1640921;72;1934;-68
2022/09/12 01:27:09;;;;;;;;;;;24.40;48.10;;;;;;1641101;72;840;-68
2022/09/12 01:29:13;;;;;;;;;;;24.40;48.10;;;;;;1645053;72;1890;-69
2022/09/12 01:31:16;;;;;;;;;;;24.30;48.10;;;;;;1632140;72;1142;-68
2022/09/12 01:33:20;;;;;;;;;;;24.30;48.20;;;;;;1636331;72;1614;-68
2022/09/12 01:35:30;;;;;;;;;;;24.30;48.20;;;;;;1621572;72;1983;-69
2022/09/12 01:37:43;;;;;;;;;;;24.30;48.20;;;;;;1626101;72;2019;-69
2022/09/12 01:39:52;;;;;;;;;;;24.30;48.30;;;;;;1633097;72;738;-69
2022/09/12 01:42:02;;;;;;;;;;;24.30;48.40;;;;;;1632274;72;1918;-69
2022/09/12 01:44:08;;;;;;;;;;;24.30;48.40;;;;;;1629059;72;1991;-71
2022/09/12 01:46:11;;;;;;;;;;;24.20;48.10;;;;;;1640883;72;1932;-70
2022/09/12 01:48:15;;;;;;;;;;;24.30;48.10;;;;;;1624648;72;1616;-70
2022/09/12 01:50:21;;;;;;;;;;;24.30;48.20;;;;;;1644329;72;689;-69
2022/09/12 01:52:24;;;;;;;;;;;24.30;48.10;;;;;;1623999;72;1143;-69
2022/09/12 01:54:31;;;;;;;;;;;24.30;48.20;;;;;;1649848;72;726;-69
2022/09/12 01:56:33;;;;;;;;;;;24.20;48.10;;;;;;1640949;72;1816;-69
2022/09/12 01:58:37;;;;;;;;;;;24.20;48.10;;;;;;1640688;72;749;-70
2022/09/12 02:00:40;;;;;;;;;;;24.30;48.20;;;;;;1646646;72;1788;-70
2022/09/12 02:02:47;;;;;;;;;;;24.20;48.00;;;;;;1628885;71;2105;-69
2022/09/12 02:05:03;;;;;;;;;;;24.20;47.80;;;;;;1644244;72;795;-71
2022/09/12 02:07:06;;;;;;;;;;;24.30;47.90;;;;;;1629990;72;771;-70
2022/09/12 02:09:17;;;;;;;;;;;24.20;47.70;;;;;;1629334;72;766;-70
2022/09/12 02:11:19;;;;;;;;;;;24.20;47.90;;;;;;1630625;72;1168;-70
2022/09/12 02:13:31;;;;;;;;;;;24.20;47.90;;;;;;1642930;72;831;-70
2022/09/12 02:15:34;;;;;;;;;;;24.20;47.80;;;;;;1630964;72;1566;-73
2022/09/12 02:17:37;;;;;;;;;;;24.30;47.90;;;;;;1625371;72;778;-70
2022/09/12 02:19:41;;;;;;;;;;;24.20;47.80;;;;;;1627288;72;753;-69
2022/09/12 02:21:44;;;;;;;;;;;24.20;47.80;;;;;;1635619;72;1769;-69
2022/09/12 02:23:47;;;;;;;;;;;24.20;48.00;;;;;;1653696;72;1893;-68
2022/09/12 02:25:51;;;;;;;;;;;24.30;48.10;;;;;;1631132;71;1952;-69
2022/09/12 02:27:59;;;;;;;;;;;24.20;47.90;;;;;;1620210;72;793;-69
2022/09/12 02:30:01;;;;;;;;;;;24.20;47.90;;;;;;1630860;72;1557;-71
2022/09/12 02:32:05;;;;;;;;;;;24.20;48.10;;;;;;1635516;72;1137;-71
2022/09/12 02:34:12;;;;;;;;;;;24.20;48.10;;;;;;1632995;72;737;-69
2022/09/12 02:36:22;;;;;;;;;;;24.20;48.30;;;;;;1628842;72;810;-70
2022/09/12 02:38:25;;;;;;;;;;;24.20;48.20;;;;;;1633933;72;1511;-70
2022/09/12 02:40:27;;;;;;;;;;;24.20;48.30;;;;;;1630601;72;743;-69
2022/09/12 02:42:29;;;;;;;;;;;24.20;48.30;;;;;;1628900;72;1062;-69
2022/09/12 02:44:31;;;;;;;;;;;24.20;48.30;;;;;;1608254;72;1576;-69
2022/09/12 02:46:34;;;;;;;;;;;24.20;48.30;;;;;;1642824;72;1943;-69
2022/09/12 02:48:37;;;;;;;;;;;24.20;48.30;;;;;;1643307;72;1879;-69
2022/09/12 02:50:39;;;;;;;;;;;24.20;48.30;;;;;;1644367;72;798;-70
2022/09/12 02:52:40;;;;;;;;;;;24.20;48.30;;;;;;1635545;72;1113;-70
2022/09/12 02:54:42;;;;;;;;;;;24.20;48.30;;;;;;1639758;72;738;-70
2022/09/12 02:56:44;;;;;;;;;;;24.20;48.00;;;;;;1641240;72;815;-71
2022/09/12 02:58:46;;;;;;;;;;;24.20;48.00;;;;;;1640168;72;1665;-68
2022/09/12 03:00:50;;;;;;;;;;;24.20;48.10;;;;;;1634095;72;831;-70
2022/09/12 03:02:53;;;;;;;;;;;24.20;48.10;;;;;;1611650;72;1653;-70
2022/09/12 03:05:03;;;;;;;;;;;24.20;48.10;;;;;;1623541;72;728;-70
2022/09/12 03:07:09;;;;;;;;;;;24.20;48.20;;;;;;1624258;72;1911;-67
2022/09/12 03:09:22;;;;;;;;;;;24.20;48.10;;;;;;1598129;72;1695;-66
2022/09/12 03:11:44;;;;;;;;;;;24.20;48.10;;;;;;1610957;72;1406;-66
2022/09/12 03:14:00;;;;;;;;;;;24.20;48.20;;;;;;1618506;72;1959;-67
2022/09/12 03:16:04;;;;;;;;;;;24.30;48.30;;;;;;1632824;72;784;-65
2022/09/12 03:18:19;;;;;;;;;;;24.30;48.30;;;;;;1615744;72;1822;-65
2022/09/12 03:20:23;;;;;;;;;;;24.30;48.20;;;;;;1630304;72;749;-66
2022/09/12 03:22:29;;;;;;;;;;;24.30;48.40;;;;;;1646918;72;1169;-65
2022/09/12 03:24:38;;;;;;;;;;;24.30;48.30;;;;;;1631225;72;680;-66
2022/09/12 03:26:47;;;;;;;;;;;24.30;48.30;;;;;;1635104;72;1925;-68
2022/09/12 03:28:49;;;;;;;;;;;24.30;48.30;;;;;;1609181;72;760;-66
2022/09/12 03:30:53;;;;;;;;;;;24.30;48.10;;;;;;1651615;72;1119;-68
2022/09/12 03:32:55;;;;;;;;;;;24.40;48.10;;;;;;1628236;72;793;-66
2022/09/12 03:34:56;;;;;;;;;;;24.30;48.10;;;;;;1634108;72;658;-65
2022/09/12 03:36:58;;;;;;;;;;;24.30;48.10;;;;;;1641816;72;778;-68
2022/09/12 03:39:00;;;;;;;;;;;24.30;48.10;;;;;;1629388;72;736;-67
2022/09/12 03:41:02;;;;;;;;;;;24.30;48.20;;;;;;1632886;72;1580;-66
2022/09/12 03:43:04;;;;;;;;;;;24.30;48.20;;;;;;1631771;72;746;-67
2022/09/12 03:45:07;;;;;;;;;;;24.30;48.30;;;;;;1638238;70;780;-68
2022/09/12 03:47:09;;;;;;;;;;;24.20;48.10;;;;;;1627759;72;1910;-67
2022/09/12 03:49:11;;;;;;;;;;;24.30;48.30;;;;;;1628187;72;806;-67
2022/09/12 03:51:12;;;;;;;;;;;24.30;48.40;;;;;;1624119;72;1144;-67
2022/09/12 03:53:14;;;;;;;;;;;24.30;48.30;;;;;;1628083;72;1589;-65
2022/09/12 03:55:16;;;;;;;;;;;24.30;48.30;;;;;;1624956;72;818;-67
2022/09/12 03:57:18;;;;;;;;;;;24.30;48.40;;;;;;1629034;72;781;-68
2022/09/12 03:59:20;;;;;;;;;;;24.30;48.40;;;;;;1628081;72;716;-67
2022/09/12 04:01:22;;;;;;;;;;;24.30;48.40;;;;;;1625597;72;1130;-68
2022/09/12 04:03:24;;;;;;;;;;;24.20;48.30;;;;;;1619250;72;892;-66
2022/09/12 04:05:27;;;;;;;;;;;24.30;48.40;;;;;;1625067;72;833;-70
2022/09/12 04:07:29;;;;;;;;;;;24.30;48.40;;;;;;1624416;72;1922;-68
2022/09/12 04:09:30;;;;;;;;;;;24.20;48.30;;;;;;1624660;72;627;-66
2022/09/12 04:11:34;;;;;;;;;;;24.30;48.50;;;;;;1630824;72;1153;-66
2022/09/12 04:13:36;;;;;;;;;;;24.20;48.40;;;;;;1555342;75;774;-65
2022/09/12 04:15:38;;;;;;;;;;;24.20;48.40;;;;;;1553553;75;837;-66
2022/09/12 04:17:40;;;;;;;;;;;24.30;48.50;;;;;;1557409;75;748;-67
2022/09/12 04:19:42;;;;;;;;;;;24.30;48.50;;;;;;1551325;75;673;-67
2022/09/12 04:21:44;;;;;;;;;;;24.30;48.50;;;;;;1629202;72;1195;-66
2022/09/12 04:23:46;;;;;;;;;;;24.30;48.60;;;;;;1629175;72;708;-66
2022/09/12 04:25:57;;;;;;;;;;;24.20;48.40;;;;;;1636004;72;698;-65
2022/09/12 04:27:59;;;;;;;;;;;24.20;48.50;;;;;;1635034;72;1558;-65
2022/09/12 04:30:01;;;;;;;;;;;24.30;48.60;;;;;;1632231;72;797;-66
2022/09/12 04:32:03;;;;;;;;;;;24.30;48.60;;;;;;1640240;72;1171;-66
2022/09/12 04:34:05;;;;;;;;;;;24.20;48.40;;;;;;1639567;72;626;-66
2022/09/12 04:36:09;;;;;;;;;;;24.20;48.50;;;;;;1639977;72;794;-67
2022/09/12 04:38:11;;;;;;;;;;;24.20;48.50;;;;;;1644837;72;1857;-67
2022/09/12 04:40:13;;;;;;;;;;;24.20;48.50;;;;;;1652485;72;736;-67
2022/09/12 04:42:15;;;;;;;;;;;24.30;48.60;;;;;;1625473;72;1134;-66
2022/09/12 04:44:17;;;;;;;;;;;24.30;48.60;;;;;;1639673;72;714;-67
2022/09/12 04:46:21;;;;;;;;;;;24.30;48.50;;;;;;1625234;72;1939;-67
2022/09/12 04:48:23;;;;;;;;;;;24.30;48.50;;;;;;1628524;72;741;-67
2022/09/12 04:50:25;;;;;;;;;;;24.30;48.50;;;;;;1623828;72;785;-64
2022/09/12 04:52:27;;;;;;;;;;;24.30;48.40;;;;;;1637570;72;1140;-64
2022/09/12 04:54:29;;;;;;;;;;;24.30;48.40;;;;;;1633301;72;791;-65
2022/09/12 04:56:31;;;;;;;;;;;24.30;48.50;;;;;;1624994;71;653;-63
2022/09/12 04:58:33;;;;;;;;;;;24.30;48.50;;;;;;1628303;72;731;-64
2022/09/12 05:00:35;;;;;;;;;;;24.30;48.60;;;;;;1625418;72;723;-65
2022/09/12 05:02:37;;;;;;;;;;;24.30;48.60;;;;;;1623904;72;1585;-64
2022/09/12 05:04:39;;;;;;;;;;;24.30;48.60;;;;;;1626093;72;748;-66
2022/09/12 05:06:41;;;;;;;;;;;24.30;48.60;;;;;;1630532;71;1928;-68
2022/09/12 05:08:43;;;;;;;;;;;24.20;48.50;;;;;;1627213;72;759;-65
2022/09/12 05:10:45;;;;;;;;;;;24.30;48.60;;;;;;1632361;72;755;-65
2022/09/12 05:12:47;;;;;;;;;;;24.30;48.70;;;;;;1576797;73;2093;-62
2022/09/12 05:14:49;;;;;;;;;;;24.40;48.60;;;;;;1562740;75;716;-67
2022/09/12 05:16:51;;;;;;;;;;;24.40;48.50;;;;;;1565247;75;622;-67
2022/09/12 05:18:53;;;;;;;;;;;24.40;48.40;;;;;;1565483;74;784;-69
2022/09/12 05:20:55;;;;;;;;;;;24.40;48.30;;;;;;1568460;75;645;-69
2022/09/12 05:22:58;;;;;;;;;;;24.40;48.30;;;;;;1544838;75;1272;-67
2022/09/12 05:25:00;;;;;;;;;;;24.40;48.40;;;;;;1543201;76;790;-66
2022/09/12 05:27:03;;;;;;;;;;;24.40;48.40;;;;;;1543429;76;1943;-71
2022/09/12 05:29:05;;;;;;;;;;;24.40;48.40;;;;;;1545826;76;775;-67
2022/09/12 05:31:09;;;;;;;;;;;24.40;48.40;;;;;;1543036;76;727;-68
2022/09/12 05:33:11;;;;;;;;;;;24.40;48.40;;;;;;1525536;76;1091;-67
2022/09/12 05:35:13;;;;;;;;;;;24.30;48.30;;;;;;1529281;76;710;-66
2022/09/12 05:37:15;;;;;;;;;;;24.30;48.30;;;;;;1540841;76;818;-66
2022/09/12 05:39:17;;;;;;;;;;;24.30;48.30;;;;;;1539294;76;982;-65
2022/09/12 05:41:19;;;;;;;;;;;24.40;48.00;;;;;;1537298;76;809;-66
2022/09/12 05:43:21;;;;;;;;;;;24.30;48.10;;;;;;1534465;75;1097;-69
2022/09/12 05:45:23;;;;;;;;;;;24.30;48.10;;;;;;1540487;76;728;-68
2022/09/12 05:47:25;;;;;;;;;;;24.30;48.10;;;;;;1537942;76;1943;-66
2022/09/12 05:49:27;;;;;;;;;;;24.40;48.00;;;;;;1535441;76;670;-67
2022/09/12 05:51:31;;;;;;;;;;;24.40;47.90;;;;;;1540857;75;1152;-66
2022/09/12 05:53:33;;;;;;;;;;;24.50;48.10;;;;;;1539518;76;735;-68
2022/09/12 05:55:35;;;;;;;;;;;24.40;47.90;;;;;;1543667;76;841;-67
2022/09/12 05:57:37;;;;;;;;;;;24.50;48.00;;;;;;1537250;75;735;-69
2022/09/12 05:59:39;;;;;;;;;;;24.50;47.80;;;;;;1543490;76;626;-68
2022/09/12 06:01:41;;;;;;;;;;;24.60;47.70;;;;;;1534499;75;1140;-66
2022/09/12 06:03:44;;;;;;;;;;;24.60;47.70;;;;;;1542863;76;726;-68
2022/09/12 06:05:45;;;;;;;;;;;24.70;47.70;;;;;;1542183;76;728;-67
2022/09/12 06:07:47;;;;;;;;;;;24.70;47.70;;;;;;1535220;76;1930;-67
2022/09/12 06:09:49;;;;;;;;;;;24.60;47.50;;;;;;1555747;76;907;-65
2022/09/12 06:11:51;;;;;;;;;;;24.70;47.70;;;;;;1534593;75;1138;-67
2022/09/12 06:13:53;;;;;;;;;;;24.70;47.60;;;;;;1540283;76;769;-68
2022/09/12 06:15:55;;;;;;;;;;;24.60;47.30;;;;;;1526605;76;769;-67
2022/09/12 06:17:57;;;;;;;;;;;24.50;47.30;;;;;;1526910;76;594;-66
2022/09/12 06:19:59;;;;;;;;;;;24.50;47.10;;;;;;1533311;77;706;-68
2022/09/12 06:22:01;;;;;;;;;;;24.40;47.10;;;;;;1528874;75;1192;-67
2022/09/12 06:24:03;;;;;;;;;;;24.40;47.10;;;;;;1534586;76;684;-67
2022/09/12 06:26:05;;;;;;;;;;;24.40;47.30;;;;;;1534158;76;796;-67
2022/09/12 06:28:07;;;;;;;;;;;24.40;47.30;;;;;;1537886;76;1933;-67
2022/09/12 06:30:09;;;;;;;;;;;24.30;47.30;;;;;;1543174;76;847;-67
2022/09/12 06:32:11;;;;;;;;;;;24.30;47.30;;;;;;1539449;75;1144;-63
2022/09/12 06:34:13;;;;;;;;;;;24.30;47.30;;;;;;1524381;76;777;-63
2022/09/12 06:36:16;;;;;;;;;;;24.40;47.30;;;;;;1536153;76;781;-66
2022/09/12 06:38:18;;;;;;;;;;;24.40;47.30;;;;;;1527609;76;724;-66
2022/09/12 06:40:20;;;;;;;;;;;24.50;47.10;;;;;;1543653;76;787;-63
2022/09/12 06:42:22;;;;;;;;;;;24.50;46.90;;;;;;1532124;75;1159;-64
2022/09/12 06:44:24;;;;;;;;;;;24.50;46.80;;;;;;1528389;76;780;-61
2022/09/12 06:46:26;;;;;;;;;;;24.50;46.80;;;;;;1543093;76;773;-64
2022/09/12 06:48:28;;;;;;;;;;;24.50;46.60;;;;;;1542560;76;1915;-64
2022/09/12 06:50:30;;;;;;;;;;;24.50;46.50;;;;;;1538081;76;811;-65
2022/09/12 06:52:32;;;;;;;;;;;24.50;46.50;;;;;;1543058;75;1141;-66
2022/09/12 06:54:34;;;;;;;;;;;24.50;46.30;;;;;;1538976;76;801;-64
2022/09/12 06:56:36;;;;;;;;;;;24.50;46.30;;;;;;1533092;76;812;-65
2022/09/12 06:58:38;;;;;;;;;;;24.50;45.90;;;;;;1535214;76;733;-65
2022/09/12 07:00:40;;;;;;;;;;;24.50;45.70;;;;;;1536750;76;684;-67
2022/09/12 07:02:42;;;;;;;;;;;24.60;46.00;;;;;;1528347;76;1132;-64
2022/09/12 07:04:44;;;;;;;;;;;24.60;45.80;;;;;;1535400;76;810;-66
2022/09/12 07:06:46;;;;;;;;;;;24.60;45.60;;;;;;1538413;76;914;-67
2022/09/12 07:08:48;;;;;;;;;;;24.50;45.50;;;;;;1530882;76;1899;-68
2022/09/12 07:10:50;;;;;;;;;;;24.60;45.40;;;;;;1540863;76;687;-68
2022/09/12 07:12:52;;;;;;;;;;;24.50;45.40;;;;;;1532150;76;1111;-68
2022/09/12 07:14:54;;;;;;;;;;;24.40;45.20;;;;;;1543387;76;772;-69
2022/09/12 07:16:56;;;;;;;;;;;24.40;45.20;;;;;;1543485;76;835;-68
2022/09/12 07:18:59;;;;;;;;;;;24.30;45.30;;;;;;1542199;76;781;-68
2022/09/12 07:21:02;;;;;;;;;;;24.30;45.30;;;;;;1539511;77;777;-68
2022/09/12 07:23:03;;;;;;;;;;;24.30;45.30;;;;;;1537619;76;1177;-68
2022/09/12 07:25:05;;;;;;;;;;;24.30;45.40;;;;;;1541927;76;826;-68
2022/09/12 07:27:08;;;;;;;;;;;24.30;45.50;;;;;;1543252;76;1932;-67
2022/09/12 07:29:18;;;;;;;;;;;24.30;45.50;;;;;;1536817;76;778;-67
2022/09/12 07:31:18;;;;;;;;;;;24.20;45.20;;;;;;1531468;76;1179;-66
2022/09/12 07:33:20;;;;;;;;;;;24.20;45.20;;;;;;1535715;76;1144;-67
2022/09/12 07:35:22;;;;;;;;;;;24.20;45.40;;;;;;1539320;76;786;-66
2022/09/12 07:37:24;;;;;;;;;;;24.40;45.70;;;;;;1533334;76;773;-67
2022/09/12 07:39:26;;;;;;;;;;;24.50;45.60;;;;;;1530097;77;755;-66
2022/09/12 07:41:28;;;;;;;;;;;24.50;45.40;;;;;;1533376;75;1159;-67
2022/09/12 07:43:30;;;;;;;;;;;24.60;45.10;;;;;;1533132;76;755;-66
2022/09/12 07:45:32;;;;;;;;;;;24.80;44.90;;;;;;1542537;76;818;-66
2022/09/12 07:47:34;;;;;;;;;;;24.80;44.50;;;;;;1542347;76;1947;-67
2022/09/12 07:49:36;;;;;;;;;;;24.80;44.30;;;;;;1528416;76;693;-68
2022/09/12 07:51:38;;;;;;;;;;;24.90;44.20;;;;;;1527989;76;1245;-69
2022/09/12 07:53:40;;;;;;;;;;;25.00;44.00;;;;;;1544584;76;740;-69
2022/09/12 07:55:42;;;;;;;;;;;25.10;43.90;;;;;;1540605;76;733;-67
2022/09/12 07:57:44;;;;;;;;;;;25.10;43.60;;;;;;1537552;76;654;-68
2022/09/12 07:59:46;;;;;;;;;;;25.10;43.30;;;;;;1531080;76;784;-67
2022/09/12 08:01:48;;;;;;;;;;;25.20;43.20;;;;;;1533225;76;1094;-67
2022/09/12 08:03:51;;;;;;;;;;;25.30;43.00;;;;;;1539946;76;779;-68
2022/09/12 08:05:53;;;;;;;;;;;25.30;42.90;;;;;;1532336;76;715;-68
2022/09/12 08:07:55;;;;;;;;;;;25.40;42.80;;;;;;1532462;76;1925;-68
2022/09/12 08:09:57;;;;;;;;;;;25.40;42.70;;;;;;1537110;76;741;-68
2022/09/12 08:11:59;;;;;;;;;;;25.50;42.70;;;;;;1533777;75;1140;-67
2022/09/12 08:14:01;;;;;;;;;;;25.50;42.60;;;;;;1534570;76;795;-69
2022/09/12 08:16:04;;;;;;;;;;;25.40;42.60;;;;;;1540913;76;797;-69
2022/09/12 08:18:06;;;;;;;;;;;25.60;42.50;;;;;;1537714;76;955;-68
2022/09/12 08:20:08;;;;;;;;;;;25.60;42.40;;;;;;1539282;76;725;-69
2022/09/12 08:22:11;;;;;;;;;;;25.60;42.40;;;;;;1539169;76;1208;-68
2022/09/12 08:24:12;;;;;;;;;;;25.70;42.30;;;;;;1532526;76;749;-68
2022/09/12 08:26:14;;;;;;;;;;;25.70;42.30;;;;;;1532952;76;815;-68
2022/09/12 08:28:16;;;;;;;;;;;25.70;42.30;;;;;;1538898;76;1908;-67
2022/09/12 08:30:18;;;;;;;;;;;25.80;42.10;;;;;;1533404;77;789;-67
2022/09/12 08:32:20;;;;;;;;;;;25.70;42.10;;;;;;1535167;75;1187;-65
2022/09/12 08:34:23;;;;;;;;;;;25.70;42.00;;;;;;1536764;76;744;-68
2022/09/12 08:36:26;;;;;;;;;;;25.80;41.90;;;;;;1541525;76;720;-70
2022/09/12 08:38:28;;;;;;;;;;;25.80;41.80;;;;;;1546832;76;743;-69
2022/09/12 08:40:30;;;;;;;;;;;25.80;41.80;;;;;;1536649;76;729;-68
2022/09/12 08:42:40;;;;;;;;;;;25.90;41.70;;;;;;1541285;75;1144;-67
2022/09/12 08:44:49;;;;;;;;;;;25.90;41.70;;;;;;1522658;76;1691;-70
2022/09/12 08:46:53;;;;;;;;;;;25.90;41.60;;;;;;1535156;76;737;-68
2022/09/12 08:48:55;;;;;;;;;;;25.90;41.60;;;;;;1533893;76;1940;-68
2022/09/12 08:50:57;;;;;;;;;;;25.90;41.50;;;;;;1534576;76;719;-68
2022/09/12 08:53:06;;;;;;;;;;;25.90;41.50;;;;;;1542828;76;1119;-69
2022/09/12 08:55:10;;;;;;;;;;;25.90;41.60;;;;;;1539718;76;2297;-67
2022/09/12 08:57:12;;;;;;;;;;;25.90;41.60;;;;;;1531644;76;1028;-67
2022/09/12 08:59:14;;;;;;;;;;;25.90;41.50;;;;;;1539964;76;784;-68
2022/09/12 09:01:32;;;;;;;;;;;26.00;42.10;;;;;;1540912;76;755;-68
2022/09/12 09:03:43;;;;;;;;;;;26.00;42.10;;;;;;1539230;76;670;-70
2022/09/12 09:05:51;;;;;;;;;;;25.90;41.50;;;;;;1540677;76;684;-70
2022/09/12 09:08:01;;;;;;;;;;;25.90;41.50;;;;;;1540422;76;1927;-70
2022/09/12 09:10:06;;;;;;;;;;;25.80;41.80;;;;;;1540558;76;1946;-71
2022/09/12 09:12:24;;;;;;;;;;;25.80;41.80;;;;;;1531471;76;1318;-69
2022/09/12 09:14:47;;;;;;;;;;;25.90;41.80;;;;;;1536697;76;759;-72
2022/09/12 09:16:50;;;;;;;;;;;25.90;41.70;;;;;;1534430;76;804;-73
2022/09/12 09:18:52;;;;;;;;;;;25.90;41.70;;;;;;1550875;76;727;-71
2022/09/12 09:20:55;;;;;;;;;;;25.90;41.70;;;;;;1540097;76;1579;-72
2022/09/12 09:23:01;;;;;;;;;;;25.90;41.80;;;;;;1542284;75;1176;-73
2022/09/12 09:25:08;;;;;;;;;;;25.90;41.70;;;;;;1539216;76;829;-72
2022/09/12 09:27:11;;;;;;;;;;;25.90;41.80;;;;;;1487631;78;620;-71
2022/09/12 09:29:20;;;;;;;;;;;25.90;41.70;;;;;;1492454;78;1928;-70
2022/09/12 09:31:23;;;;;;;;;;;26.00;42.20;;;;;;1476459;79;815;-69
2022/09/12 09:33:26;;;;;;;;;;;25.90;41.60;;;;;;1540319;76;745;-70
2022/09/12 09:35:39;;;;;;;;;;;25.90;41.60;;;;;;1541397;76;730;-71
2022/09/12 09:37:44;;;;;;;;;;;25.90;41.60;;;;;;1536871;76;737;-73
2022/09/12 09:39:50;;;;;;;;;;;25.90;41.70;;;;;;1534699;76;742;-73
2022/09/12 09:42:12;;;;;;;;;;;25.90;41.70;;;;;;1542451;75;1210;-73
2022/09/12 09:44:14;;;;;;;;;;;25.90;41.70;;;;;;1542667;75;684;-73
2022/09/12 09:46:16;;;;;;;;;;;25.90;41.80;;;;;;1542307;75;739;-72
2022/09/12 09:48:18;;;;;;;;;;;25.90;41.80;;;;;;1537784;76;1921;-73
2022/09/12 09:50:20;;;;;;;;;;;25.90;41.80;;;;;;1545943;75;725;-72
2022/09/12 09:52:24;;;;;;;;;;;25.90;41.80;;;;;;1540930;75;1146;-72
2022/09/12 09:54:39;;;;;;;;;;;25.90;41.80;;;;;;1540427;75;1848;-72
2022/09/12 09:56:45;;;;;;;;;;;25.90;41.80;;;;;;1533683;76;897;-73
2022/09/12 09:58:44;;;;;;;;;;;25.80;42.10;;;;;;1531477;76;1265;-68
2022/09/12 10:00:46;;;;;;;;;;;25.70;42.70;;;;;;1537537;76;801;-74
2022/09/12 10:02:58;;;;;;;;;;;25.70;42.80;;;;;;1538376;75;1155;-69
2022/09/12 10:05:00;;;;;;;;;;;25.60;42.70;;;;;;1537546;76;715;-70
2022/09/12 10:07:03;;;;;;;;;;;25.50;42.10;;;;;;1540110;76;827;-70
2022/09/12 10:09:18;;;;;;;;;;;25.50;42.30;;;;;;1537070;76;1908;-70
2022/09/12 10:11:21;;;;;;;;;;;25.50;42.20;;;;;;1535636;76;707;-70
2022/09/12 10:13:24;;;;;;;;;;;25.50;42.30;;;;;;1541002;76;1174;-70
2022/09/12 10:15:26;;;;;;;;;;;25.50;42.30;;;;;;1553317;76;822;-70
2022/09/12 10:17:29;;;;;;;;;;;25.50;42.00;;;;;;1543850;76;1516;-69
2022/09/12 10:19:38;;;;;;;;;;;25.30;41.90;;;;;;1534374;76;882;-71
2022/09/12 10:21:45;;;;;;;;;;;25.30;42.10;;;;;;1546141;76;1162;-70
2022/09/12 10:23:47;;;;;;;;;;;25.30;41.70;;;;;;1542712;76;1761;-70
2022/09/12 10:25:52;;;;;;;;;;;25.40;41.80;;;;;;1553707;76;652;-69
2022/09/12 10:27:56;;;;;;;;;;;25.30;40.50;;;;;;1539887;76;811;-69
2022/09/12 10:30:08;;;;;;;;;;;25.20;41.60;;;;;;1542176;76;1936;-68
2022/09/12 10:32:11;;;;;;;;;;;25.10;41.70;;;;;;1537970;75;1842;-70
2022/09/12 10:34:15;;;;;;;;;;;25.10;41.20;;;;;;1544482;76;776;-70
2022/09/12 10:36:16;;;;;;;;;;;25.10;42.30;;;;;;1536215;76;1806;-73
2022/09/12 10:38:26;;;;;;;;;;;25.10;42.30;;;;;;1539192;76;735;-71
2022/09/12 10:40:32;;;;;;;;;;;25.10;41.50;;;;;;1541500;76;752;-72
2022/09/12 10:42:47;;;;;;;;;;;24.90;42.40;;;;;;1539912;75;1802;-70
2022/09/12 10:44:53;;;;;;;;;;;24.90;42.50;;;;;;1540855;76;812;-72
2022/09/12 10:46:55;;;;;;;;;;;25.00;42.20;;;;;;1543582;76;864;-71
2022/09/12 10:49:15;;;;;;;;;;;25.00;42.20;;;;;;1542288;76;1955;-73
2022/09/12 10:51:27;;;;;;;;;;;25.00;42.20;;;;;;1535918;76;794;-71
2022/09/12 10:53:34;;;;;;;;;;;25.00;42.50;;;;;;1544533;76;733;-71
2022/09/12 10:55:35;;;;;;;;;;;25.00;42.40;;;;;;1537346;76;1926;-71
2022/09/12 10:57:39;;;;;;;;;;;25.00;42.10;;;;;;1545934;76;612;-70
2022/09/12 10:59:42;;;;;;;;;;;24.90;42.10;;;;;;1539687;76;2466;-71
2022/09/12 11:01:45;;;;;;;;;;;25.00;42.20;;;;;;1548946;75;1172;-70
2022/09/12 11:03:49;;;;;;;;;;;24.80;42.10;;;;;;1539543;76;752;-70
2022/09/12 11:05:52;;;;;;;;;;;24.80;41.60;;;;;;1543920;76;1751;-71
2022/09/12 11:07:55;;;;;;;;;;;24.70;41.70;;;;;;1532615;76;797;-71
2022/09/12 11:09:58;;;;;;;;;;;24.70;42.10;;;;;;1540997;76;1921;-71
2022/09/12 11:12:11;;;;;;;;;;;24.60;41.50;;;;;;1543701;71;234616;-71
2022/09/12 11:14:15;;;;;;;;;;;24.50;42.50;;;;;;1563122;74;1914;-70
2022/09/12 11:16:31;;;;;;;;;;;24.50;42.60;;;;;;1569224;74;1050;-71
2022/09/12 11:18:51;;;;;;;;;;;24.50;41.90;;;;;;1566653;74;1848;-69
2022/09/12 11:21:11;;;;;;;;;;;24.50;41.90;;;;;;1567156;74;774;-66
2022/09/12 11:23:14;;;;;;;;;;;24.30;42.00;;;;;;1588011;73;1128;-69
2022/09/12 11:25:30;;;;;;;;;;;24.40;42.10;;;;;;1594738;73;1882;-69
2022/09/12 11:27:45;;;;;;;;;;;24.30;41.90;;;;;;1595710;73;1027;-70
2022/09/12 11:30:05;;;;;;;;;;;24.30;42.70;;;;;;1591423;73;1984;-69
2022/09/12 11:32:15;;;;;;;;;;;24.40;42.80;;;;;;1595100;73;1169;-69
2022/09/12 11:34:18;;;;;;;;;;;24.40;42.10;;;;;;1589679;73;762;-70
2022/09/12 11:36:31;;;;;;;;;;;24.40;42.30;;;;;;1592949;73;736;-70
2022/09/12 11:38:46;;;;;;;;;;;24.50;42.30;;;;;;1595418;73;742;-70
2022/09/12 11:40:55;;;;;;;;;;;24.30;42.00;;;;;;1586877;73;782;-70
2022/09/12 11:42:58;;;;;;;;;;;24.30;41.60;;;;;;1592092;73;1135;-69
2022/09/12 11:45:05;;;;;;;;;;;24.30;42.10;;;;;;1599373;73;1868;-70
2022/09/12 11:47:07;;;;;;;;;;;24.20;41.00;;;;;;1583183;73;1884;-68
2022/09/12 11:49:15;;;;;;;;;;;24.20;42.10;;;;;;1591691;73;1910;-69
2022/09/12 11:51:27;;;;;;;;;;;24.20;42.10;;;;;;1581109;73;1484;-70
2022/09/12 11:53:30;;;;;;;;;;;24.20;41.30;;;;;;1584042;73;1061;-70
2022/09/12 11:55:33;;;;;;;;;;;24.10;42.00;;;;;;1597111;73;796;-70
2022/09/12 11:57:43;;;;;;;;;;;24.10;41.40;;;;;;1597811;73;1916;-69
2022/09/12 11:59:46;;;;;;;;;;;24.20;42.00;;;;;;1589675;73;804;-70
2022/09/12 12:01:48;;;;;;;;;;;24.20;41.90;;;;;;1594375;73;1191;-71
2022/09/12 12:03:54;;;;;;;;;;;24.20;41.90;;;;;;1591196;73;723;-69
2022/09/12 12:05:55;;;;;;;;;;;24.20;41.40;;;;;;1584335;73;1666;-72
2022/09/12 12:07:58;;;;;;;;;;;24.20;41.80;;;;;;1592985;73;747;-70
2022/09/12 12:09:59;;;;;;;;;;;24.30;41.30;;;;;;1599657;73;1922;-70
2022/09/12 12:12:03;;;;;;;;;;;24.30;41.30;;;;;;1591842;73;1141;-70
2022/09/12 12:14:15;;;;;;;;;;;24.30;40.60;;;;;;1593862;73;770;-71
2022/09/12 12:16:24;;;;;;;;;;;24.30;41.70;;;;;;1592397;73;701;-69
2022/09/12 12:18:27;;;;;;;;;;;24.30;41.70;;;;;;1595870;73;670;-70
2022/09/12 12:20:29;;;;;;;;;;;24.30;41.80;;;;;;1590673;73;715;-70